sensor_id;sensor_type;location;lat;lon;timestamp;temperature;humidity
68433;DHT22;55412;51.350;17.056;2023-02-01T00:00:14;3.70;79.30
68433;DHT22;55412;51.350;17.056;2023-02-01T00:02:40;3.70;79.20
68433;DHT22;55412;51.350;17.056;2023-02-01T00:05:08;3.60;79.30
68433;DHT22;55412;51.350;17.056;2023-02-01T00:07:34;3.70;79.30
68433;DHT22;55412;51.350;17.056;2023-02-01T00:10:02;3.70;79.20
68433;DHT22;55412;51.350;17.056;2023-02-01T00:12:30;3.70;79.10
68433;DHT22;55412;51.350;17.056;2023-02-01T00:14:56;3.70;79.20
68433;DHT22;55412;51.350;17.056;2023-02-01T00:17:22;3.70;79.10
68433;DHT22;55412;51.350;17.056;2023-02-01T00:19:48;3.70;79.00
68433;DHT22;55412;51.350;17.056;2023-02-01T00:22:14;3.60;79.10
68433;DHT22;55412;51.350;17.056;2023-02-01T00:24:40;3.60;79.10
68433;DHT22;55412;51.350;17.056;2023-02-01T00:27:06;3.60;79.00
68433;DHT22;55412;51.350;17.056;2023-02-01T00:29:32;3.60;79.00
68433;DHT22;55412;51.350;17.056;2023-02-01T00:31:58;3.60;79.00
68433;DHT22;55412;51.350;17.056;2023-02-01T00:34:24;3.60;79.00
68433;DHT22;55412;51.350;17.056;2023-02-01T00:36:50;3.60;79.00
68433;DHT22;55412;51.350;17.056;2023-02-01T00:39:16;3.60;79.00
68433;DHT22;55412;51.350;17.056;2023-02-01T00:41:43;3.60;79.00
68433;DHT22;55412;51.350;17.056;2023-02-01T00:44:09;3.60;79.00
68433;DHT22;55412;51.350;17.056;2023-02-01T00:46:35;3.60;79.10
68433;DHT22;55412;51.350;17.056;2023-02-01T00:49:02;3.60;79.00
68433;DHT22;55412;51.350;17.056;2023-02-01T00:51:29;3.60;79.00
68433;DHT22;55412;51.350;17.056;2023-02-01T00:53:55;3.60;79.00
68433;DHT22;55412;51.350;17.056;2023-02-01T00:56:22;3.60;79.00
68433;DHT22;55412;51.350;17.056;2023-02-01T00:58:48;3.60;79.20
68433;DHT22;55412;51.350;17.056;2023-02-01T01:01:20;3.60;79.20
68433;DHT22;55412;51.350;17.056;2023-02-01T01:03:54;3.70;79.10
68433;DHT22;55412;51.350;17.056;2023-02-01T01:06:27;3.70;79.30
68433;DHT22;55412;51.350;17.056;2023-02-01T01:08:56;3.70;79.20
68433;DHT22;55412;51.350;17.056;2023-02-01T01:11:27;3.70;79.20
68433;DHT22;55412;51.350;17.056;2023-02-01T01:13:55;3.70;79.20
68433;DHT22;55412;51.350;17.056;2023-02-01T01:16:24;3.70;79.20
68433;DHT22;55412;51.350;17.056;2023-02-01T01:18:52;3.70;79.30
68433;DHT22;55412;51.350;17.056;2023-02-01T01:21:19;3.80;79.30
68433;DHT22;55412;51.350;17.056;2023-02-01T01:23:46;3.70;79.20
68433;DHT22;55412;51.350;17.056;2023-02-01T01:26:18;3.70;79.30
68433;DHT22;55412;51.350;17.056;2023-02-01T01:28:48;3.70;79.20
68433;DHT22;55412;51.350;17.056;2023-02-01T01:31:16;3.70;79.20
68433;DHT22;55412;51.350;17.056;2023-02-01T01:33:43;3.70;79.20
68433;DHT22;55412;51.350;17.056;2023-02-01T01:36:10;3.70;79.20
68433;DHT22;55412;51.350;17.056;2023-02-01T01:38:37;3.70;79.20
68433;DHT22;55412;51.350;17.056;2023-02-01T01:41:04;3.60;79.20
68433;DHT22;55412;51.350;17.056;2023-02-01T01:43:48;3.60;79.10
68433;DHT22;55412;51.350;17.056;2023-02-01T01:46:36;3.60;79.00
68433;DHT22;55412;51.350;17.056;2023-02-01T01:49:24;3.60;79.00
68433;DHT22;55412;51.350;17.056;2023-02-01T01:52:00;3.60;79.10
68433;DHT22;55412;51.350;17.056;2023-02-01T01:54:37;3.60;79.20
68433;DHT22;55412;51.350;17.056;2023-02-01T01:57:11;3.60;79.20
68433;DHT22;55412;51.350;17.056;2023-02-01T01:59:42;3.60;79.20
68433;DHT22;55412;51.350;17.056;2023-02-01T02:02:11;3.60;79.30
68433;DHT22;55412;51.350;17.056;2023-02-01T02:04:37;3.60;79.20
68433;DHT22;55412;51.350;17.056;2023-02-01T02:07:08;3.60;79.20
68433;DHT22;55412;51.350;17.056;2023-02-01T02:09:37;3.60;79.20
68433;DHT22;55412;51.350;17.056;2023-02-01T02:12:03;3.60;79.20
68433;DHT22;55412;51.350;17.056;2023-02-01T02:14:30;3.60;79.20
68433;DHT22;55412;51.350;17.056;2023-02-01T02:23:01;3.60;79.20
68433;DHT22;55412;51.350;17.056;2023-02-01T02:34:28;3.60;79.20
68433;DHT22;55412;51.350;17.056;2023-02-01T02:37:49;3.70;79.30
68433;DHT22;55412;51.350;17.056;2023-02-01T02:46:34;3.70;79.40
68433;DHT22;55412;51.350;17.056;2023-02-01T02:49:39;3.70;79.50
68433;DHT22;55412;51.350;17.056;2023-02-01T02:52:15;3.70;79.50
68433;DHT22;55412;51.350;17.056;2023-02-01T02:55:03;3.70;79.40
68433;DHT22;55412;51.350;17.056;2023-02-01T02:57:37;3.70;79.40
68433;DHT22;55412;51.350;17.056;2023-02-01T03:00:28;3.70;79.40
68433;DHT22;55412;51.350;17.056;2023-02-01T03:03:14;3.70;79.40
68433;DHT22;55412;51.350;17.056;2023-02-01T03:05:59;3.70;79.50
68433;DHT22;55412;51.350;17.056;2023-02-01T03:08:27;3.80;79.40
68433;DHT22;55412;51.350;17.056;2023-02-01T03:11:09;3.80;79.40
68433;DHT22;55412;51.350;17.056;2023-02-01T03:13:47;3.80;79.40
68433;DHT22;55412;51.350;17.056;2023-02-01T03:19:19;3.80;79.40
68433;DHT22;55412;51.350;17.056;2023-02-01T03:22:06;3.90;79.40
68433;DHT22;55412;51.350;17.056;2023-02-01T03:24:59;3.90;79.40
68433;DHT22;55412;51.350;17.056;2023-02-01T03:30:24;3.90;79.40
68433;DHT22;55412;51.350;17.056;2023-02-01T03:32:56;3.90;79.40
68433;DHT22;55412;51.350;17.056;2023-02-01T03:35:38;3.90;79.30
68433;DHT22;55412;51.350;17.056;2023-02-01T03:41:08;3.90;79.30
68433;DHT22;55412;51.350;17.056;2023-02-01T03:43:54;3.90;79.30
68433;DHT22;55412;51.350;17.056;2023-02-01T03:46:37;3.90;79.20
68433;DHT22;55412;51.350;17.056;2023-02-01T03:49:09;3.90;79.20
68433;DHT22;55412;51.350;17.056;2023-02-01T03:51:40;3.90;79.30
68433;DHT22;55412;51.350;17.056;2023-02-01T03:54:10;3.90;79.30
68433;DHT22;55412;51.350;17.056;2023-02-01T03:56:41;3.90;79.10
68433;DHT22;55412;51.350;17.056;2023-02-01T03:59:10;3.90;79.30
68433;DHT22;55412;51.350;17.056;2023-02-01T04:01:37;3.90;79.10
68433;DHT22;55412;51.350;17.056;2023-02-01T04:04:03;3.90;79.10
68433;DHT22;55412;51.350;17.056;2023-02-01T04:06:29;3.90;79.10
68433;DHT22;55412;51.350;17.056;2023-02-01T04:08:55;3.90;79.00
68433;DHT22;55412;51.350;17.056;2023-02-01T04:11:21;3.90;79.00
68433;DHT22;55412;51.350;17.056;2023-02-01T04:13:47;3.90;79.00
68433;DHT22;55412;51.350;17.056;2023-02-01T04:16:13;3.90;79.00
68433;DHT22;55412;51.350;17.056;2023-02-01T04:18:39;3.90;79.00
68433;DHT22;55412;51.350;17.056;2023-02-01T04:21:05;3.90;78.90
68433;DHT22;55412;51.350;17.056;2023-02-01T04:23:32;3.90;79.00
68433;DHT22;55412;51.350;17.056;2023-02-01T04:26:02;3.90;78.90
68433;DHT22;55412;51.350;17.056;2023-02-01T04:28:28;3.90;78.80
68433;DHT22;55412;51.350;17.056;2023-02-01T04:30:55;3.90;78.80
68433;DHT22;55412;51.350;17.056;2023-02-01T04:33:21;3.90;78.80
68433;DHT22;55412;51.350;17.056;2023-02-01T04:35:48;3.90;78.80
68433;DHT22;55412;51.350;17.056;2023-02-01T04:38:14;3.90;78.80
68433;DHT22;55412;51.350;17.056;2023-02-01T04:40:40;3.90;78.80
68433;DHT22;55412;51.350;17.056;2023-02-01T04:43:06;4.00;78.80
68433;DHT22;55412;51.350;17.056;2023-02-01T04:45:32;4.00;78.70
68433;DHT22;55412;51.350;17.056;2023-02-01T04:47:58;4.00;78.80
68433;DHT22;55412;51.350;17.056;2023-02-01T04:50:24;4.00;78.80
68433;DHT22;55412;51.350;17.056;2023-02-01T04:52:50;4.00;78.80
68433;DHT22;55412;51.350;17.056;2023-02-01T04:55:16;4.00;78.80
68433;DHT22;55412;51.350;17.056;2023-02-01T04:57:42;4.10;78.80
68433;DHT22;55412;51.350;17.056;2023-02-01T05:00:09;4.10;78.80
68433;DHT22;55412;51.350;17.056;2023-02-01T05:02:35;4.10;78.80
68433;DHT22;55412;51.350;17.056;2023-02-01T05:05:02;4.10;78.70
68433;DHT22;55412;51.350;17.056;2023-02-01T05:07:28;4.10;78.70
68433;DHT22;55412;51.350;17.056;2023-02-01T05:09:54;4.20;78.80
68433;DHT22;55412;51.350;17.056;2023-02-01T05:12:20;4.20;78.90
68433;DHT22;55412;51.350;17.056;2023-02-01T05:15:05;4.20;78.70
68433;DHT22;55412;51.350;17.056;2023-02-01T05:17:31;4.20;78.80
68433;DHT22;55412;51.350;17.056;2023-02-01T05:19:57;4.30;78.70
68433;DHT22;55412;51.350;17.056;2023-02-01T05:22:23;4.30;78.60
68433;DHT22;55412;51.350;17.056;2023-02-01T05:24:49;4.30;78.60
68433;DHT22;55412;51.350;17.056;2023-02-01T05:27:15;4.30;78.60
68433;DHT22;55412;51.350;17.056;2023-02-01T05:29:41;4.30;78.60
68433;DHT22;55412;51.350;17.056;2023-02-01T05:32:09;4.30;78.50
68433;DHT22;55412;51.350;17.056;2023-02-01T05:34:36;4.30;78.50
68433;DHT22;55412;51.350;17.056;2023-02-01T05:37:02;4.30;78.60
68433;DHT22;55412;51.350;17.056;2023-02-01T05:39:28;4.30;78.40
68433;DHT22;55412;51.350;17.056;2023-02-01T05:41:55;4.30;78.50
68433;DHT22;55412;51.350;17.056;2023-02-01T05:44:21;4.30;78.40
68433;DHT22;55412;51.350;17.056;2023-02-01T05:46:47;4.30;78.40
68433;DHT22;55412;51.350;17.056;2023-02-01T05:49:13;4.30;78.40
68433;DHT22;55412;51.350;17.056;2023-02-01T05:51:39;4.30;78.40
68433;DHT22;55412;51.350;17.056;2023-02-01T05:54:05;4.30;78.30
68433;DHT22;55412;51.350;17.056;2023-02-01T05:56:31;4.30;78.40
68433;DHT22;55412;51.350;17.056;2023-02-01T05:58:57;4.30;78.30
68433;DHT22;55412;51.350;17.056;2023-02-01T06:01:23;4.30;78.20
68433;DHT22;55412;51.350;17.056;2023-02-01T06:03:49;4.30;78.30
68433;DHT22;55412;51.350;17.056;2023-02-01T06:06:15;4.30;78.30
68433;DHT22;55412;51.350;17.056;2023-02-01T06:08:41;4.30;78.20
68433;DHT22;55412;51.350;17.056;2023-02-01T06:11:07;4.40;78.20
68433;DHT22;55412;51.350;17.056;2023-02-01T06:13:34;4.40;78.30
68433;DHT22;55412;51.350;17.056;2023-02-01T06:16:01;4.40;78.20
68433;DHT22;55412;51.350;17.056;2023-02-01T06:18:28;4.40;78.20
68433;DHT22;55412;51.350;17.056;2023-02-01T06:20:57;4.40;78.10
68433;DHT22;55412;51.350;17.056;2023-02-01T06:23:25;4.40;78.10
68433;DHT22;55412;51.350;17.056;2023-02-01T06:26:06;4.40;78.10
68433;DHT22;55412;51.350;17.056;2023-02-01T06:28:35;4.50;78.10
68433;DHT22;55412;51.350;17.056;2023-02-01T06:31:07;4.50;78.10
68433;DHT22;55412;51.350;17.056;2023-02-01T06:33:34;4.50;78.10
68433;DHT22;55412;51.350;17.056;2023-02-01T06:36:03;4.50;78.10
68433;DHT22;55412;51.350;17.056;2023-02-01T06:38:31;4.50;78.10
68433;DHT22;55412;51.350;17.056;2023-02-01T06:40:58;4.50;78.00
68433;DHT22;55412;51.350;17.056;2023-02-01T06:43:25;4.50;78.10
68433;DHT22;55412;51.350;17.056;2023-02-01T06:45:52;4.50;78.00
68433;DHT22;55412;51.350;17.056;2023-02-01T06:48:18;4.50;78.00
68433;DHT22;55412;51.350;17.056;2023-02-01T06:50:44;4.50;78.00
68433;DHT22;55412;51.350;17.056;2023-02-01T06:53:11;4.60;78.00
68433;DHT22;55412;51.350;17.056;2023-02-01T06:55:37;4.60;77.90
68433;DHT22;55412;51.350;17.056;2023-02-01T06:58:03;4.60;77.90
68433;DHT22;55412;51.350;17.056;2023-02-01T07:00:29;4.60;77.90
68433;DHT22;55412;51.350;17.056;2023-02-01T07:02:57;4.60;77.90
68433;DHT22;55412;51.350;17.056;2023-02-01T07:05:24;4.60;77.90
68433;DHT22;55412;51.350;17.056;2023-02-01T07:07:50;4.70;77.90
68433;DHT22;55412;51.350;17.056;2023-02-01T07:10:16;4.70;77.80
68433;DHT22;55412;51.350;17.056;2023-02-01T07:12:42;4.70;77.80
68433;DHT22;55412;51.350;17.056;2023-02-01T07:15:09;4.70;77.70
68433;DHT22;55412;51.350;17.056;2023-02-01T07:17:35;4.70;77.80
68433;DHT22;55412;51.350;17.056;2023-02-01T07:20:01;4.70;77.80
68433;DHT22;55412;51.350;17.056;2023-02-01T07:22:27;4.70;77.80
68433;DHT22;55412;51.350;17.056;2023-02-01T07:24:54;4.80;77.80
68433;DHT22;55412;51.350;17.056;2023-02-01T07:27:20;4.80;77.80
68433;DHT22;55412;51.350;17.056;2023-02-01T07:29:46;4.80;77.70
68433;DHT22;55412;51.350;17.056;2023-02-01T07:32:12;4.80;77.70
68433;DHT22;55412;51.350;17.056;2023-02-01T07:34:38;4.90;77.80
68433;DHT22;55412;51.350;17.056;2023-02-01T07:37:04;4.90;77.70
68433;DHT22;55412;51.350;17.056;2023-02-01T07:39:32;4.90;77.70
68433;DHT22;55412;51.350;17.056;2023-02-01T07:41:58;4.90;77.70
68433;DHT22;55412;51.350;17.056;2023-02-01T07:44:24;5.00;77.60
68433;DHT22;55412;51.350;17.056;2023-02-01T07:46:50;4.90;77.60
68433;DHT22;55412;51.350;17.056;2023-02-01T07:49:16;5.00;77.60
68433;DHT22;55412;51.350;17.056;2023-02-01T07:51:43;5.00;77.70
68433;DHT22;55412;51.350;17.056;2023-02-01T07:54:09;5.00;77.50
68433;DHT22;55412;51.350;17.056;2023-02-01T07:56:35;5.00;77.70
68433;DHT22;55412;51.350;17.056;2023-02-01T07:59:01;5.10;77.60
68433;DHT22;55412;51.350;17.056;2023-02-01T08:01:28;5.10;77.60
68433;DHT22;55412;51.350;17.056;2023-02-01T08:03:56;5.10;77.50
68433;DHT22;55412;51.350;17.056;2023-02-01T08:06:30;5.20;77.50
68433;DHT22;55412;51.350;17.056;2023-02-01T08:08:57;5.20;77.50
68433;DHT22;55412;51.350;17.056;2023-02-01T08:11:24;5.20;77.50
68433;DHT22;55412;51.350;17.056;2023-02-01T08:13:51;5.30;77.60
68433;DHT22;55412;51.350;17.056;2023-02-01T08:16:19;5.30;77.60
68433;DHT22;55412;51.350;17.056;2023-02-01T08:18:46;5.40;77.60
68433;DHT22;55412;51.350;17.056;2023-02-01T08:21:18;5.40;77.50
68433;DHT22;55412;51.350;17.056;2023-02-01T08:23:47;5.50;77.60
68433;DHT22;55412;51.350;17.056;2023-02-01T08:26:22;5.50;77.50
68433;DHT22;55412;51.350;17.056;2023-02-01T08:28:59;5.60;77.60
68433;DHT22;55412;51.350;17.056;2023-02-01T08:31:28;5.60;77.40
68433;DHT22;55412;51.350;17.056;2023-02-01T08:33:58;5.60;77.40
68433;DHT22;55412;51.350;17.056;2023-02-01T08:36:26;5.60;77.30
68433;DHT22;55412;51.350;17.056;2023-02-01T08:38:54;5.60;77.40
68433;DHT22;55412;51.350;17.056;2023-02-01T08:41:22;5.60;77.30
68433;DHT22;55412;51.350;17.056;2023-02-01T08:43:51;5.60;77.20
68433;DHT22;55412;51.350;17.056;2023-02-01T08:46:19;5.60;77.20
68433;DHT22;55412;51.350;17.056;2023-02-01T08:48:46;5.60;77.10
68433;DHT22;55412;51.350;17.056;2023-02-01T08:51:14;5.60;77.10
68433;DHT22;55412;51.350;17.056;2023-02-01T08:53:42;5.60;77.00
68433;DHT22;55412;51.350;17.056;2023-02-01T08:56:10;5.50;77.00
68433;DHT22;55412;51.350;17.056;2023-02-01T08:58:38;5.50;76.90
68433;DHT22;55412;51.350;17.056;2023-02-01T09:01:06;5.50;76.90
68433;DHT22;55412;51.350;17.056;2023-02-01T09:03:34;5.40;76.80
68433;DHT22;55412;51.350;17.056;2023-02-01T09:06:09;5.40;76.90
68433;DHT22;55412;51.350;17.056;2023-02-01T09:08:37;5.40;76.80
68433;DHT22;55412;51.350;17.056;2023-02-01T09:11:08;5.40;76.90
68433;DHT22;55412;51.350;17.056;2023-02-01T09:13:37;5.40;76.80
68433;DHT22;55412;51.350;17.056;2023-02-01T09:16:04;5.40;76.90
68433;DHT22;55412;51.350;17.056;2023-02-01T09:18:30;5.40;76.90
68433;DHT22;55412;51.350;17.056;2023-02-01T09:20:56;5.40;76.90
68433;DHT22;55412;51.350;17.056;2023-02-01T09:23:22;5.40;77.00
68433;DHT22;55412;51.350;17.056;2023-02-01T09:25:48;5.40;76.90
68433;DHT22;55412;51.350;17.056;2023-02-01T09:28:17;5.50;77.20
68433;DHT22;55412;51.350;17.056;2023-02-01T09:30:44;5.60;77.30
68433;DHT22;55412;51.350;17.056;2023-02-01T09:33:10;5.80;77.40
68433;DHT22;55412;51.350;17.056;2023-02-01T09:35:36;5.90;77.50
68433;DHT22;55412;51.350;17.056;2023-02-01T09:38:03;6.00;77.50
68433;DHT22;55412;51.350;17.056;2023-02-01T09:40:29;6.20;77.70
68433;DHT22;55412;51.350;17.056;2023-02-01T09:43:14;6.30;77.70
68433;DHT22;55412;51.350;17.056;2023-02-01T09:48:30;6.50;77.60
68433;DHT22;55412;51.350;17.056;2023-02-01T09:50:59;6.60;77.50
68433;DHT22;55412;51.350;17.056;2023-02-01T09:53:40;6.70;77.60
68433;DHT22;55412;51.350;17.056;2023-02-01T09:56:36;6.80;77.50
68433;DHT22;55412;51.350;17.056;2023-02-01T10:01:57;7.00;77.40
68433;DHT22;55412;51.350;17.056;2023-02-01T10:04:25;7.10;77.30
68433;DHT22;55412;51.350;17.056;2023-02-01T10:09:56;7.10;77.10
68433;DHT22;55412;51.350;17.056;2023-02-01T10:15:38;7.00;76.70
68433;DHT22;55412;51.350;17.056;2023-02-01T10:22:05;6.80;76.40
68433;DHT22;55412;51.350;17.056;2023-02-01T10:24:40;6.80;76.30
68433;DHT22;55412;51.350;17.056;2023-02-01T10:27:21;6.70;76.20
68433;DHT22;55412;51.350;17.056;2023-02-01T10:30:01;6.70;76.20
68433;DHT22;55412;51.350;17.056;2023-02-01T10:32:33;6.60;76.10
68433;DHT22;55412;51.350;17.056;2023-02-01T10:35:04;6.60;76.10
68433;DHT22;55412;51.350;17.056;2023-02-01T10:37:45;6.50;76.10
68433;DHT22;55412;51.350;17.056;2023-02-01T10:40:25;6.50;76.00
68433;DHT22;55412;51.350;17.056;2023-02-01T10:42:56;6.40;76.00
68433;DHT22;55412;51.350;17.056;2023-02-01T10:45:27;6.40;75.90
68433;DHT22;55412;51.350;17.056;2023-02-01T10:47:56;6.30;75.80
68433;DHT22;55412;51.350;17.056;2023-02-01T10:53:32;6.20;75.80
68433;DHT22;55412;51.350;17.056;2023-02-01T10:56:26;6.20;75.70
68433;DHT22;55412;51.350;17.056;2023-02-01T10:59:11;6.10;75.80
68433;DHT22;55412;51.350;17.056;2023-02-01T11:01:47;6.10;75.70
68433;DHT22;55412;51.350;17.056;2023-02-01T11:04:16;6.10;75.70
68433;DHT22;55412;51.350;17.056;2023-02-01T11:06:45;6.10;75.70
68433;DHT22;55412;51.350;17.056;2023-02-01T11:09:19;6.00;75.80
68433;DHT22;55412;51.350;17.056;2023-02-01T11:16:55;6.10;75.80
68433;DHT22;55412;51.350;17.056;2023-02-01T11:19:26;6.00;75.70
68433;DHT22;55412;51.350;17.056;2023-02-01T11:21:55;6.00;75.80
68433;DHT22;55412;51.350;17.056;2023-02-01T11:24:26;6.00;75.80
68433;DHT22;55412;51.350;17.056;2023-02-01T11:26:56;6.00;75.60
68433;DHT22;55412;51.350;17.056;2023-02-01T11:29:26;5.90;75.60
68433;DHT22;55412;51.350;17.056;2023-02-01T11:32:03;5.90;75.60
68433;DHT22;55412;51.350;17.056;2023-02-01T11:35:11;5.90;75.70
68433;DHT22;55412;51.350;17.056;2023-02-01T11:37:41;5.90;75.70
68433;DHT22;55412;51.350;17.056;2023-02-01T11:43:24;5.80;75.70
68433;DHT22;55412;51.350;17.056;2023-02-01T11:46:00;5.80;75.70
68433;DHT22;55412;51.350;17.056;2023-02-01T11:48:30;5.80;75.70
68433;DHT22;55412;51.350;17.056;2023-02-01T11:51:15;5.70;75.70
68433;DHT22;55412;51.350;17.056;2023-02-01T11:54:58;5.70;75.60
68433;DHT22;55412;51.350;17.056;2023-02-01T11:57:32;5.70;75.60
68433;DHT22;55412;51.350;17.056;2023-02-01T12:00:32;5.60;75.60
68433;DHT22;55412;51.350;17.056;2023-02-01T12:06:32;5.50;75.60
68433;DHT22;55412;51.350;17.056;2023-02-01T12:12:47;5.40;75.60
68433;DHT22;55412;51.350;17.056;2023-02-01T12:16:07;5.40;75.70
68433;DHT22;55412;51.350;17.056;2023-02-01T12:21:44;5.30;75.80
68433;DHT22;55412;51.350;17.056;2023-02-01T12:24:32;5.30;75.90
68433;DHT22;55412;51.350;17.056;2023-02-01T12:38:44;5.20;76.20
68433;DHT22;55412;51.350;17.056;2023-02-01T12:41:48;5.20;76.30
68433;DHT22;55412;51.350;17.056;2023-02-01T12:44:31;5.30;76.40
68433;DHT22;55412;51.350;17.056;2023-02-01T12:50:29;5.30;76.40
68433;DHT22;55412;51.350;17.056;2023-02-01T12:53:15;5.40;76.50
68433;DHT22;55412;51.350;17.056;2023-02-01T12:55:58;5.40;76.40
68433;DHT22;55412;51.350;17.056;2023-02-01T12:58:48;5.30;76.40
68433;DHT22;55412;51.350;17.056;2023-02-01T13:01:21;5.30;76.50
68433;DHT22;55412;51.350;17.056;2023-02-01T13:07:18;5.30;76.60
68433;DHT22;55412;51.350;17.056;2023-02-01T13:10:01;5.20;76.60
68433;DHT22;55412;51.350;17.056;2023-02-01T13:12:58;5.20;76.80
68433;DHT22;55412;51.350;17.056;2023-02-01T13:15:39;5.30;76.80
68433;DHT22;55412;51.350;17.056;2023-02-01T13:18:14;5.30;77.20
68433;DHT22;55412;51.350;17.056;2023-02-01T13:21:06;5.30;76.90
68433;DHT22;55412;51.350;17.056;2023-02-01T13:23:39;5.30;77.00
68433;DHT22;55412;51.350;17.056;2023-02-01T13:26:06;5.30;77.00
68433;DHT22;55412;51.350;17.056;2023-02-01T13:34:26;5.40;77.10
68433;DHT22;55412;51.350;17.056;2023-02-01T13:43:09;5.40;77.10
68433;DHT22;55412;51.350;17.056;2023-02-01T13:45:47;5.30;77.10
68433;DHT22;55412;51.350;17.056;2023-02-01T13:48:26;5.30;77.00
68433;DHT22;55412;51.350;17.056;2023-02-01T13:50:58;5.30;77.10
68433;DHT22;55412;51.350;17.056;2023-02-01T13:53:32;5.30;77.00
68433;DHT22;55412;51.350;17.056;2023-02-01T13:56:07;5.30;77.10
68433;DHT22;55412;51.350;17.056;2023-02-01T13:58:39;5.30;77.10
68433;DHT22;55412;51.350;17.056;2023-02-01T14:03:59;5.20;77.10
68433;DHT22;55412;51.350;17.056;2023-02-01T14:15:26;5.10;77.30
68433;DHT22;55412;51.350;17.056;2023-02-01T14:17:54;5.10;77.40
68433;DHT22;55412;51.350;17.056;2023-02-01T14:23:14;5.10;77.40
68433;DHT22;55412;51.350;17.056;2023-02-01T14:25:43;5.00;77.40
68433;DHT22;55412;51.350;17.056;2023-02-01T14:28:12;5.00;77.40
68433;DHT22;55412;51.350;17.056;2023-02-01T14:30:48;4.90;77.50
68433;DHT22;55412;51.350;17.056;2023-02-01T14:33:20;4.90;77.40
68433;DHT22;55412;51.350;17.056;2023-02-01T14:36:09;4.90;77.60
68433;DHT22;55412;51.350;17.056;2023-02-01T14:38:38;4.80;77.50
68433;DHT22;55412;51.350;17.056;2023-02-01T14:41:26;4.80;77.60
68433;DHT22;55412;51.350;17.056;2023-02-01T14:47:05;4.70;77.70
68433;DHT22;55412;51.350;17.056;2023-02-01T14:52:42;4.70;77.80
68433;DHT22;55412;51.350;17.056;2023-02-01T14:55:17;4.70;77.80
68433;DHT22;55412;51.350;17.056;2023-02-01T14:57:50;4.70;77.80
68433;DHT22;55412;51.350;17.056;2023-02-01T15:00:23;4.80;77.80
68433;DHT22;55412;51.350;17.056;2023-02-01T15:02:52;4.80;77.80
68433;DHT22;55412;51.350;17.056;2023-02-01T15:05:25;4.80;77.90
68433;DHT22;55412;51.350;17.056;2023-02-01T15:08:21;4.80;77.90
68433;DHT22;55412;51.350;17.056;2023-02-01T15:10:53;4.80;78.00
68433;DHT22;55412;51.350;17.056;2023-02-01T15:13:25;4.80;77.80
68433;DHT22;55412;51.350;17.056;2023-02-01T15:16:05;4.80;77.80
68433;DHT22;55412;51.350;17.056;2023-02-01T15:18:39;4.90;77.80
68433;DHT22;55412;51.350;17.056;2023-02-01T15:21:12;4.90;77.90
68433;DHT22;55412;51.350;17.056;2023-02-01T15:23:42;4.90;77.80
68433;DHT22;55412;51.350;17.056;2023-02-01T15:26:08;4.90;77.80
68433;DHT22;55412;51.350;17.056;2023-02-01T15:28:34;4.90;77.70
68433;DHT22;55412;51.350;17.056;2023-02-01T15:31:05;4.90;77.70
68433;DHT22;55412;51.350;17.056;2023-02-01T15:33:31;4.90;77.80
68433;DHT22;55412;51.350;17.056;2023-02-01T15:38:40;4.90;77.80
68433;DHT22;55412;51.350;17.056;2023-02-01T15:41:16;4.90;77.80
68433;DHT22;55412;51.350;17.056;2023-02-01T15:46:46;4.90;77.80
68433;DHT22;55412;51.350;17.056;2023-02-01T15:49:37;4.90;77.80
68433;DHT22;55412;51.350;17.056;2023-02-01T15:52:21;4.90;77.80
68433;DHT22;55412;51.350;17.056;2023-02-01T15:54:56;4.90;77.80
68433;DHT22;55412;51.350;17.056;2023-02-01T15:57:33;4.90;77.80
68433;DHT22;55412;51.350;17.056;2023-02-01T16:00:04;4.90;77.80
68433;DHT22;55412;51.350;17.056;2023-02-01T16:02:50;4.90;77.90
68433;DHT22;55412;51.350;17.056;2023-02-01T16:05:36;4.90;77.90
68433;DHT22;55412;51.350;17.056;2023-02-01T16:08:23;4.90;77.80
68433;DHT22;55412;51.350;17.056;2023-02-01T16:10:53;4.90;77.80
68433;DHT22;55412;51.350;17.056;2023-02-01T16:13:21;4.90;77.80
68433;DHT22;55412;51.350;17.056;2023-02-01T16:15:47;4.90;77.80
68433;DHT22;55412;51.350;17.056;2023-02-01T16:18:15;4.90;77.70
68433;DHT22;55412;51.350;17.056;2023-02-01T16:20:42;4.90;77.70
68433;DHT22;55412;51.350;17.056;2023-02-01T16:23:10;4.90;77.80
68433;DHT22;55412;51.350;17.056;2023-02-01T16:25:37;4.90;77.80
68433;DHT22;55412;51.350;17.056;2023-02-01T16:28:03;4.90;77.80
68433;DHT22;55412;51.350;17.056;2023-02-01T16:30:34;4.90;77.80
68433;DHT22;55412;51.350;17.056;2023-02-01T16:33:01;4.90;77.80
68433;DHT22;55412;51.350;17.056;2023-02-01T16:35:30;4.90;77.80
68433;DHT22;55412;51.350;17.056;2023-02-01T16:38:05;4.90;77.80
68433;DHT22;55412;51.350;17.056;2023-02-01T16:40:41;4.90;77.70
68433;DHT22;55412;51.350;17.056;2023-02-01T16:43:14;4.90;77.70
68433;DHT22;55412;51.350;17.056;2023-02-01T16:45:41;4.90;77.70
68433;DHT22;55412;51.350;17.056;2023-02-01T16:51:03;4.90;77.80
68433;DHT22;55412;51.350;17.056;2023-02-01T16:53:33;4.90;77.60
68433;DHT22;55412;51.350;17.056;2023-02-01T16:55:59;4.80;77.70
68433;DHT22;55412;51.350;17.056;2023-02-01T16:58:26;4.80;77.70
68433;DHT22;55412;51.350;17.056;2023-02-01T17:00:53;4.80;77.70
68433;DHT22;55412;51.350;17.056;2023-02-01T17:03:20;4.80;77.70
68433;DHT22;55412;51.350;17.056;2023-02-01T17:05:55;4.80;77.70
68433;DHT22;55412;51.350;17.056;2023-02-01T17:08:36;4.80;77.80
68433;DHT22;55412;51.350;17.056;2023-02-01T17:11:06;4.80;77.60
68433;DHT22;55412;51.350;17.056;2023-02-01T17:13:33;4.90;77.80
68433;DHT22;55412;51.350;17.056;2023-02-01T17:16:00;4.90;77.80
68433;DHT22;55412;51.350;17.056;2023-02-01T17:18:31;4.90;77.70
68433;DHT22;55412;51.350;17.056;2023-02-01T17:21:00;4.80;77.70
68433;DHT22;55412;51.350;17.056;2023-02-01T17:23:29;4.90;77.80
68433;DHT22;55412;51.350;17.056;2023-02-01T17:25:56;4.90;77.80
68433;DHT22;55412;51.350;17.056;2023-02-01T17:28:22;4.90;77.80
68433;DHT22;55412;51.350;17.056;2023-02-01T17:30:49;4.90;77.70
68433;DHT22;55412;51.350;17.056;2023-02-01T17:35:49;5.00;77.70
68433;DHT22;55412;51.350;17.056;2023-02-01T17:38:16;4.90;77.70
68433;DHT22;55412;51.350;17.056;2023-02-01T17:40:42;5.00;77.70
68433;DHT22;55412;51.350;17.056;2023-02-01T17:43:16;5.00;77.70
68433;DHT22;55412;51.350;17.056;2023-02-01T17:45:52;5.00;77.60
68433;DHT22;55412;51.350;17.056;2023-02-01T17:48:20;4.90;77.70
68433;DHT22;55412;51.350;17.056;2023-02-01T17:50:48;4.90;77.60
68433;DHT22;55412;51.350;17.056;2023-02-01T17:53:17;4.90;77.50
68433;DHT22;55412;51.350;17.056;2023-02-01T17:55:46;4.90;77.60
68433;DHT22;55412;51.350;17.056;2023-02-01T17:58:13;4.90;77.50
68433;DHT22;55412;51.350;17.056;2023-02-01T18:00:40;4.80;77.60
68433;DHT22;55412;51.350;17.056;2023-02-01T18:03:33;4.80;77.50
68433;DHT22;55412;51.350;17.056;2023-02-01T18:06:00;4.80;77.50